createdAt,value
2017-03-26T05:54:49.015Z,1023.03
2017-03-26T05:55:49.038Z,1023.08
2017-03-26T05:56:49.067Z,1023.13
2017-03-26T05:57:49.090Z,1023.14
2017-03-26T05:58:49.112Z,1023.16
2017-03-26T05:59:49.138Z,1023.19
2017-03-26T06:00:49.166Z,1023.21
2017-03-26T06:01:49.182Z,1023.23
2017-03-26T06:02:49.220Z,1023.23
2017-03-26T06:03:49.242Z,1023.27
2017-03-26T06:04:49.269Z,1023.2
2017-03-26T06:05:49.287Z,1023.22
2017-03-26T06:06:49.318Z,1023.24
2017-03-26T06:07:49.345Z,1023.27
2017-03-26T06:08:49.374Z,1023.32
2017-03-26T06:09:49.385Z,1023.32
2017-03-26T06:10:49.424Z,1023.24
2017-03-26T06:11:49.446Z,1023.27
2017-03-26T06:12:49.499Z,1023.24
2017-03-26T06:13:49.488Z,1023.24
2017-03-26T06:14:49.520Z,1023.24
2017-03-26T06:15:49.552Z,1023.27
2017-03-26T06:16:49.607Z,1023.27
2017-03-26T06:17:49.608Z,1023.3
2017-03-26T06:18:49.633Z,1023.34
2017-03-26T06:19:49.652Z,1023.36
2017-03-26T06:20:49.672Z,1023.38
2017-03-26T06:21:49.706Z,1023.42
2017-03-26T06:22:49.737Z,1023.41
2017-03-26T06:23:49.791Z,1023.48
2017-03-26T06:24:49.816Z,1023.47
2017-03-26T06:25:49.810Z,1023.55
2017-03-26T06:26:49.868Z,1023.6
2017-03-26T06:27:49.869Z,1023.6
2017-03-26T06:28:49.925Z,1023.64
2017-03-26T06:29:49.924Z,1023.65
2017-03-26T06:30:49.943Z,1023.68
2017-03-26T06:31:49.973Z,1023.68
2017-03-26T06:32:50.027Z,1023.77
2017-03-26T06:33:50.020Z,1023.79
2017-03-26T06:34:50.058Z,1023.84
2017-03-26T06:35:50.077Z,1023.91
2017-03-26T06:36:50.111Z,1023.93
2017-03-26T06:37:50.161Z,1023.98
2017-03-26T06:38:50.199Z,1024.02
2017-03-26T06:39:50.183Z,1024.07
2017-03-26T06:40:50.224Z,1024.13
2017-03-26T06:41:50.276Z,1024.2
2017-03-26T06:42:50.277Z,1024.17
2017-03-26T06:43:50.334Z,1024.2
2017-03-26T06:44:50.331Z,1024.19
2017-03-26T06:45:50.390Z,1024.22
2017-03-26T06:46:50.391Z,1024.28
2017-03-26T06:47:50.451Z,1024.27
2017-03-26T06:48:50.478Z,1024.28
2017-03-26T06:49:50.473Z,1024.36
2017-03-26T06:50:50.508Z,1024.42
2017-03-26T06:51:50.566Z,1024.42
2017-03-26T06:52:50.597Z,1024.46
2017-03-26T06:53:50.591Z,1024.45
2017-03-26T06:54:50.653Z,1024.5
2017-03-26T06:55:50.659Z,1024.51
2017-03-26T06:56:50.680Z,1024.5
2017-03-26T06:57:50.739Z,1024.57
2017-03-26T06:58:50.746Z,1024.5
2017-03-26T06:59:50.773Z,1024.58
2017-03-26T07:00:50.835Z,1024.66
2017-03-26T07:01:50.839Z,1024.74
2017-03-26T07:02:50.869Z,1024.81
2017-03-26T07:03:50.907Z,1024.78
2017-03-26T07:04:50.939Z,1024.95
2017-03-26T07:05:50.968Z,1024.93
2017-03-26T07:06:51.000Z,1024.95
2017-03-26T07:07:51.032Z,1024.96
2017-03-26T07:08:51.095Z,1025.11
2017-03-26T07:09:51.102Z,1025.1
2017-03-26T07:10:51.124Z,1025.19
2017-03-26T07:11:51.161Z,1025.24
2017-03-26T07:12:51.187Z,1025.28
2017-03-26T07:13:51.222Z,1025.38
2017-03-26T07:14:51.258Z,1025.39
2017-03-26T07:15:51.293Z,1025.47
2017-03-26T07:16:51.327Z,1025.49
2017-03-26T07:17:51.387Z,1025.42
2017-03-26T07:18:51.383Z,1025.47
2017-03-26T07:19:51.419Z,1025.44
2017-03-26T07:20:51.460Z,1025.5
2017-03-26T07:21:51.496Z,1025.41
2017-03-26T07:22:51.526Z,1025.52
2017-03-26T07:23:51.563Z,1025.53
2017-03-26T07:24:51.591Z,1025.6
2017-03-26T07:25:51.653Z,1025.49
2017-03-26T07:26:51.689Z,1025.53
2017-03-26T07:27:51.696Z,1025.47
2017-03-26T07:28:51.733Z,1025.47
2017-03-26T07:29:51.766Z,1025.47
2017-03-26T07:30:51.802Z,1025.35
2017-03-26T07:31:51.866Z,1025.43
2017-03-26T07:32:51.878Z,1025.59
2017-03-26T07:33:51.897Z,1025.61
2017-03-26T07:34:51.938Z,1025.71
2017-03-26T07:35:52.002Z,1025.63
2017-03-26T07:36:51.996Z,1025.53
2017-03-26T07:37:52.066Z,1025.6
2017-03-26T07:38:52.110Z,1025.67
2017-03-26T07:39:52.112Z,1025.57
2017-03-26T07:40:52.133Z,1025.58
2017-03-26T07:41:52.207Z,1025.62
2017-03-26T07:42:52.247Z,1025.64
2017-03-26T07:43:52.253Z,1025.66
2017-03-26T07:44:52.283Z,1025.68
2017-03-26T07:45:52.324Z,1025.64
2017-03-26T07:46:52.391Z,1025.69
2017-03-26T07:47:52.392Z,1025.68
2017-03-26T07:48:52.457Z,1025.65
2017-03-26T07:49:52.494Z,1025.59
2017-03-26T07:50:52.492Z,1025.58
2017-03-26T07:51:52.540Z,1025.55
2017-03-26T07:52:52.602Z,1025.5
2017-03-26T07:53:52.638Z,1025.58
2017-03-26T07:54:52.636Z,1025.52
2017-03-26T07:55:52.707Z,1025.46
2017-03-26T07:56:52.748Z,1025.52
2017-03-26T07:57:52.783Z,1025.54
2017-03-26T07:58:52.797Z,1025.57
2017-03-26T07:59:52.821Z,1025.48
2017-03-26T08:00:52.874Z,1025.6
2017-03-26T08:01:52.899Z,1025.54
2017-03-26T08:02:52.944Z,1025.53
2017-03-26T08:03:53.012Z,1025.51
2017-03-26T08:04:53.009Z,1025.48
2017-03-26T08:05:53.084Z,1025.39
2017-03-26T08:06:53.122Z,1025.41
2017-03-26T08:07:53.127Z,1025.43
2017-03-26T08:08:53.171Z,1025.36
2017-03-26T08:09:53.220Z,1025.37
2017-03-26T08:10:53.324Z,1025.32
2017-03-26T08:11:53.314Z,1025.32
2017-03-26T08:12:53.326Z,1025.28
2017-03-26T08:13:53.359Z,1025.27
2017-03-26T08:14:53.404Z,1025.24
2017-03-26T08:15:53.443Z,1025.26
2017-03-26T08:16:53.511Z,1025.16
2017-03-26T08:17:53.521Z,1025.14
2017-03-26T08:18:53.562Z,1025.12
2017-03-26T08:19:53.605Z,1025.12
2017-03-26T08:20:53.632Z,1025.08
2017-03-26T08:21:53.709Z,1025.02
2017-03-26T08:22:53.727Z,1025.02
2017-03-26T08:23:53.754Z,1024.98
2017-03-26T08:24:53.799Z,1024.95
2017-03-26T08:25:53.846Z,1024.92
2017-03-26T08:26:53.872Z,1024.83
2017-03-26T08:27:53.927Z,1024.83
2017-03-26T08:28:53.993Z,1024.84
2017-03-26T08:29:53.998Z,1024.82
2017-03-26T08:30:54.048Z,1024.78
2017-03-26T08:31:54.117Z,1024.78
2017-03-26T08:32:54.121Z,1024.78
2017-03-26T08:33:54.172Z,1024.81
2017-03-26T08:34:54.204Z,1024.86
2017-03-26T08:35:54.245Z,1024.88
2017-03-26T08:36:54.302Z,1024.84
2017-03-26T08:37:54.366Z,1024.76
2017-03-26T08:38:54.372Z,1024.8
2017-03-26T08:39:54.426Z,1024.75
2017-03-26T08:40:54.467Z,1024.76
2017-03-26T08:41:54.508Z,1024.75
2017-03-26T08:42:54.546Z,1024.79
2017-03-26T08:43:54.599Z,1024.75
2017-03-26T08:44:54.631Z,1024.75
2017-03-26T08:45:54.675Z,1024.78
2017-03-26T08:46:54.716Z,1024.78
2017-03-26T08:47:54.759Z,1024.75
2017-03-26T08:48:54.832Z,1024.73
2017-03-26T08:49:54.846Z,1024.77
2017-03-26T08:50:54.888Z,1024.74
2017-03-26T08:51:54.963Z,1024.73
2017-03-26T08:52:54.967Z,1024.74
2017-03-26T08:53:55.013Z,1024.72
2017-03-26T08:54:55.054Z,1024.74
2017-03-26T08:55:55.130Z,1024.74
2017-03-26T08:56:55.147Z,1024.71
2017-03-26T08:57:55.218Z,1024.74
2017-03-26T08:58:55.234Z,1024.72
2017-03-26T08:59:55.305Z,1024.74
2017-03-26T09:00:55.312Z,1024.78
2017-03-26T09:01:55.389Z,1024.76
2017-03-26T09:02:55.408Z,1024.74
2017-03-26T09:03:55.477Z,1024.78
2017-03-26T09:04:55.491Z,1024.76
2017-03-26T09:05:55.537Z,1024.8
2017-03-26T09:06:55.579Z,1024.85
2017-03-26T09:07:55.622Z,1024.86
2017-03-26T09:08:55.697Z,1024.86
2017-03-26T09:09:55.711Z,1024.87
2017-03-26T09:10:55.746Z,1024.92
2017-03-26T09:11:55.827Z,1024.97
2017-03-26T09:12:55.840Z,1024.97
2017-03-26T09:13:55.892Z,1024.97
2017-03-26T09:14:55.929Z,1024.95
2017-03-26T09:15:55.978Z,1025.01
2017-03-26T09:16:56.021Z,1025.08
2017-03-26T09:17:56.065Z,1025.1
2017-03-26T09:18:56.111Z,1025.18
2017-03-26T09:19:56.154Z,1025.23
2017-03-26T09:20:56.196Z,1025.17
2017-03-26T09:21:56.244Z,1025.04
2017-03-26T09:22:56.278Z,1025.16
2017-03-26T09:23:56.326Z,1025.14
2017-03-26T09:24:56.405Z,1025.17
2017-03-26T09:25:56.415Z,1025.19
2017-03-26T09:26:56.457Z,1025.19
2017-03-26T09:27:56.541Z,1025.2
2017-03-26T09:28:56.549Z,1025.15
2017-03-26T09:29:56.630Z,1025.16
2017-03-26T09:30:56.639Z,1025.18
2017-03-26T09:31:56.726Z,1025.22
2017-03-26T09:32:56.742Z,1025.12
2017-03-26T09:33:56.779Z,1025.11
2017-03-26T09:34:56.823Z,1025.1
2017-03-26T09:35:56.875Z,1025.12
2017-03-26T09:36:56.916Z,1025.13
2017-03-26T09:37:56.966Z,1025.05
2017-03-26T09:38:57.013Z,1025.08
2017-03-26T09:39:57.061Z,1024.98
2017-03-26T09:40:57.134Z,1024.85
2017-03-26T09:41:57.142Z,1024.8
2017-03-26T09:42:57.192Z,1024.81
2017-03-26T09:43:57.230Z,1024.88
2017-03-26T09:44:57.286Z,1024.97
2017-03-26T09:45:57.327Z,1025.04
2017-03-26T09:46:57.385Z,1025.12
2017-03-26T09:47:57.424Z,1025.06
2017-03-26T09:48:57.493Z,1025.09
2017-03-26T09:49:57.507Z,1025.09
2017-03-26T09:50:57.564Z,1025.11
2017-03-26T09:51:57.606Z,1025.11
2017-03-26T09:52:57.646Z,1025.18
2017-03-26T09:53:57.699Z,1025.13
2017-03-26T09:54:57.763Z,1025.12
2017-03-26T09:55:57.787Z,1025.08
2017-03-26T09:56:57.834Z,1025.26
2017-03-26T09:57:57.877Z,1025.27
2017-03-26T09:58:57.950Z,1025.37
2017-03-26T09:59:57.965Z,1025.38
2017-03-26T10:00:58.008Z,1025.45
2017-03-26T10:01:58.050Z,1025.5
2017-03-26T10:02:58.099Z,1025.53
2017-03-26T10:03:58.170Z,1025.56
2017-03-26T10:04:58.185Z,1025.53
2017-03-26T10:05:58.234Z,1025.55
2017-03-26T10:06:58.752Z,1025.55
2017-03-26T10:07:58.310Z,1025.59
2017-03-26T10:08:58.374Z,1025.59
2017-03-26T10:09:58.408Z,1025.56
2017-03-26T10:10:58.454Z,1025.53
2017-03-26T10:11:58.504Z,1025.51
2017-03-26T10:12:58.545Z,1025.55
2017-03-26T10:13:58.590Z,1025.61
2017-03-26T10:14:58.631Z,1025.7
2017-03-26T10:15:58.668Z,1025.74
2017-03-26T10:16:58.714Z,1025.78
2017-03-26T10:17:58.753Z,1025.82
2017-03-26T10:18:58.804Z,1025.89
2017-03-26T10:19:58.848Z,1025.91
2017-03-26T10:20:58.889Z,1025.87
2017-03-26T10:21:58.936Z,1025.92
2017-03-26T10:22:59.000Z,1025.97
2017-03-26T10:23:59.019Z,1025.95
2017-03-26T10:24:59.055Z,1025.98
2017-03-26T10:25:59.130Z,1026.08
2017-03-26T10:26:59.142Z,1026.04
2017-03-26T10:27:59.182Z,1026.02
2017-03-26T10:28:59.256Z,1026.14
2017-03-26T10:29:59.262Z,1026.3
2017-03-26T10:30:59.340Z,1026.33
2017-03-26T10:31:59.346Z,1026.47
2017-03-26T10:32:59.390Z,1026.5
2017-03-26T10:33:59.462Z,1026.49
2017-03-26T10:34:59.466Z,1026.53
2017-03-26T10:35:59.511Z,1026.59
2017-03-26T10:36:59.582Z,1026.69
2017-03-26T10:37:59.592Z,1026.78
2017-03-26T10:38:59.633Z,1026.76
2017-03-26T10:39:59.667Z,1026.67
2017-03-26T10:40:59.713Z,1026.73
2017-03-26T10:41:59.780Z,1026.84
2017-03-26T10:42:59.812Z,1026.96
2017-03-26T10:43:59.823Z,1026.96
2017-03-26T10:44:59.895Z,1027.01
2017-03-26T10:45:59.906Z,1026.94
2017-03-26T10:46:59.946Z,1026.77
2017-03-26T10:47:59.982Z,1026.92
2017-03-26T10:49:00.018Z,1026.84
2017-03-26T10:50:00.084Z,1026.95
2017-03-26T10:51:00.128Z,1027.03
2017-03-26T10:52:00.131Z,1027.08
2017-03-26T10:53:00.173Z,1027.16
2017-03-26T10:54:00.219Z,1027.34
2017-03-26T10:55:00.277Z,1027.32
2017-03-26T10:56:00.315Z,1027.18
2017-03-26T10:57:00.329Z,1027.09
2017-03-26T10:58:00.358Z,1026.02
2017-03-26T10:59:00.399Z,1024.95
2017-03-26T11:00:00.442Z,1024.85
2017-03-26T11:01:00.483Z,1024.81
2017-03-26T11:02:00.515Z,1024.84
2017-03-26T11:03:00.552Z,1024.83
2017-03-26T11:04:00.617Z,1024.81
2017-03-26T11:05:00.616Z,1024.76
2017-03-26T11:06:00.662Z,1024.74
2017-03-26T11:07:00.695Z,1024.74
2017-03-26T11:08:00.744Z,1024.77
2017-03-26T11:09:00.767Z,1024.78
2017-03-26T11:10:00.800Z,1024.79
2017-03-26T11:11:00.851Z,1024.76
2017-03-26T11:12:00.877Z,1024.79
2017-03-26T11:13:00.945Z,1024.81
2017-03-26T11:14:00.997Z,1024.85
2017-03-26T11:15:00.990Z,1024.83
2017-03-26T11:16:01.073Z,1024.79
2017-03-26T11:17:01.079Z,1024.75
2017-03-26T11:18:01.117Z,1024.79
2017-03-26T11:19:01.143Z,1024.75
2017-03-26T11:20:01.217Z,1024.72
2017-03-26T11:21:01.228Z,1024.72
2017-03-26T11:22:01.256Z,1024.69
2017-03-26T11:23:01.285Z,1024.66
2017-03-26T11:24:01.309Z,1024.69
2017-03-26T11:25:01.370Z,1024.7
2017-03-26T11:26:01.387Z,1024.68
2017-03-26T11:27:01.448Z,1024.73
2017-03-26T11:28:01.484Z,1024.68
2017-03-26T11:29:01.497Z,1024.69
2017-03-26T11:30:01.532Z,1024.7
2017-03-26T11:31:01.566Z,1024.7
2017-03-26T11:32:01.608Z,1024.67
2017-03-26T11:33:01.645Z,1024.72
2017-03-26T11:34:01.668Z,1024.64
2017-03-26T11:35:01.711Z,1024.65
2017-03-26T11:36:01.784Z,1024.61
2017-03-26T11:37:01.780Z,1024.6
2017-03-26T11:38:01.821Z,1024.6
2017-03-26T11:39:01.880Z,1024.63
2017-03-26T11:40:01.885Z,1024.56
2017-03-26T11:41:01.934Z,1024.56
2017-03-26T11:42:01.987Z,1024.48
2017-03-26T11:43:01.999Z,1024.48
2017-03-26T11:44:02.024Z,1024.42
2017-03-26T11:45:02.071Z,1024.46
2017-03-26T11:46:02.129Z,1024.43
2017-03-26T11:47:02.129Z,1024.37
2017-03-26T11:48:02.160Z,1024.39
2017-03-26T11:49:02.207Z,1024.31
2017-03-26T11:50:02.277Z,1024.37
2017-03-26T11:51:02.275Z,1024.35
2017-03-26T11:52:02.355Z,1024.3
2017-03-26T11:53:02.380Z,1024.27
2017-03-26T11:54:02.378Z,1024.28
2017-03-26T11:55:02.448Z,1024.24
2017-03-26T11:56:02.451Z,1024.24
2017-03-26T11:57:02.525Z,1024.26
2017-03-26T11:58:02.525Z,1024.25
2017-03-26T11:59:02.589Z,1024.27
2017-03-26T12:00:02.625Z,1024.24
2017-03-26T12:01:02.632Z,1024.25
2017-03-26T12:02:02.693Z,1024.29
2017-03-26T12:03:02.703Z,1024.22
2017-03-26T12:04:02.765Z,1024.25
2017-03-26T12:05:02.770Z,1024.25
2017-03-26T12:06:02.836Z,1024.22
2017-03-26T12:07:02.836Z,1024.27
2017-03-26T12:08:02.877Z,1024.25
2017-03-26T12:09:02.904Z,1024.28
2017-03-26T12:10:02.948Z,1024.24
2017-03-26T12:11:03.002Z,1024.25
2017-03-26T12:12:03.015Z,1024.26
2017-03-26T12:13:03.045Z,1024.26
2017-03-26T12:14:03.076Z,1024.26
2017-03-26T12:15:03.145Z,1024.29
2017-03-26T12:16:03.147Z,1024.3
2017-03-26T12:17:03.179Z,1024.31
2017-03-26T12:18:03.218Z,1024.33
2017-03-26T12:19:03.249Z,1024.34
2017-03-26T12:20:03.281Z,1024.39
2017-03-26T12:21:03.371Z,1024.33
2017-03-26T12:22:03.350Z,1024.38
2017-03-26T12:23:03.383Z,1024.42
2017-03-26T12:24:03.452Z,1024.38
2017-03-26T12:25:03.460Z,1024.41
2017-03-26T12:26:03.495Z,1024.41
2017-03-26T12:27:03.522Z,1024.38
2017-03-26T12:28:03.590Z,1024.37
2017-03-26T12:29:03.664Z,1024.39
2017-03-26T12:30:03.630Z,1024.38
2017-03-26T12:31:03.676Z,1024.37
2017-03-26T12:32:03.705Z,1024.41
2017-03-26T12:33:03.735Z,1024.41
2017-03-26T12:34:03.794Z,1024.42
2017-03-26T12:35:03.801Z,1024.4
2017-03-26T12:36:03.832Z,1024.37
2017-03-26T12:37:03.871Z,1024.33
2017-03-26T12:38:03.904Z,1024.34
2017-03-26T12:39:03.937Z,1024.26
2017-03-26T12:40:03.987Z,1024.33
2017-03-26T12:41:04.032Z,1024.3
2017-03-26T12:42:04.034Z,1024.28
2017-03-26T12:43:04.073Z,1024.25
2017-03-26T12:44:04.102Z,1024.3
2017-03-26T12:45:04.155Z,1024.37
2017-03-26T12:46:04.176Z,1024.26
2017-03-26T12:47:04.209Z,1024.26
2017-03-26T12:48:04.244Z,1024.28
2017-03-26T12:49:04.308Z,1024.25
2017-03-26T12:50:04.315Z,1024.22
2017-03-26T12:51:04.337Z,1024.21
2017-03-26T12:52:04.384Z,1024.19
2017-03-26T12:53:04.411Z,1024.19
2017-03-26T12:54:04.448Z,1024.19
2017-03-26T12:55:04.471Z,1024.18
2017-03-26T12:56:04.541Z,1024.18
2017-03-26T12:57:04.545Z,1024.14
2017-03-26T12:58:04.603Z,1024.12
2017-03-26T12:59:04.602Z,1024.14
2017-03-26T13:00:04.648Z,1024.09
2017-03-26T13:01:04.682Z,1024.09
2017-03-26T13:02:04.716Z,1024.08
2017-03-26T13:03:04.748Z,1024.08
2017-03-26T13:04:04.803Z,1024.08
2017-03-26T13:05:04.810Z,1024.07
2017-03-26T13:06:04.874Z,1024.05
2017-03-26T13:07:04.876Z,1024.02
2017-03-26T13:08:04.918Z,1024.06
2017-03-26T13:09:04.947Z,1024.07
2017-03-26T13:10:04.991Z,1024.14
2017-03-26T13:11:05.042Z,1024.12
2017-03-26T13:12:05.049Z,1024.11
2017-03-26T13:13:05.085Z,1024.12
2017-03-26T13:14:05.109Z,1024.13
2017-03-26T13:15:05.176Z,1024.1
2017-03-26T13:16:05.173Z,1024.09
2017-03-26T13:17:05.216Z,1024.12
2017-03-26T13:18:05.248Z,1024.12
2017-03-26T13:19:05.284Z,1024.11
2017-03-26T13:20:05.316Z,1024.09
2017-03-26T13:21:05.350Z,1024.09
2017-03-26T13:22:05.384Z,1024.02
2017-03-26T13:23:05.444Z,1024.08
2017-03-26T13:24:05.451Z,1024.03
2017-03-26T13:25:05.486Z,1024.05
2017-03-26T13:26:05.510Z,1024.04
2017-03-26T13:27:05.547Z,1024.04
2017-03-26T13:28:05.585Z,1023.98
2017-03-26T13:29:05.615Z,1023.97
2017-03-26T13:30:05.658Z,1024.02
2017-03-26T13:31:05.676Z,1024.02
2017-03-26T13:32:05.716Z,1023.98
2017-03-26T13:33:05.747Z,1023.98
2017-03-26T13:34:05.784Z,1023.98
2017-03-26T13:35:05.812Z,1023.99
2017-03-26T13:36:05.884Z,1023.96
2017-03-26T13:37:05.886Z,1023.95
2017-03-26T13:38:05.952Z,1024.05
2017-03-26T13:39:05.949Z,1024.01
2017-03-26T13:40:05.980Z,1023.98
2017-03-26T13:41:06.013Z,1023.96
2017-03-26T13:42:06.057Z,1023.96
2017-03-26T13:43:06.077Z,1023.95
2017-03-26T13:44:06.129Z,1023.96
2017-03-26T13:45:06.163Z,1023.92
2017-03-26T13:46:06.182Z,1023.96
2017-03-26T13:47:06.251Z,1023.97
2017-03-26T13:48:06.283Z,1024.01
2017-03-26T13:49:06.287Z,1024
2017-03-26T13:50:06.314Z,1024
2017-03-26T13:51:06.353Z,1023.98
2017-03-26T13:52:06.382Z,1023.96
2017-03-26T13:53:06.458Z,1023.95
2017-03-26T13:54:06.449Z,1023.97
2017-03-26T13:55:06.490Z,1023.97
2017-03-26T13:56:06.550Z,1023.95
2017-03-26T13:57:06.560Z,1023.93
2017-03-26T13:58:06.590Z,1023.91
2017-03-26T13:59:06.654Z,1023.89
2017-03-26T14:00:06.655Z,1023.9
2017-03-26T14:01:06.719Z,1023.92
2017-03-26T14:02:06.728Z,1023.91
2017-03-26T14:03:06.786Z,1023.89
2017-03-26T14:04:06.795Z,1023.88
2017-03-26T14:05:06.826Z,1023.84
2017-03-26T14:06:06.964Z,1023.84
2017-03-26T14:07:06.919Z,1023.89
2017-03-26T14:08:06.926Z,1023.87
2017-03-26T14:09:06.961Z,1023.88
2017-03-26T14:10:07.021Z,1023.83
2017-03-26T14:11:07.017Z,1023.87
2017-03-26T14:12:07.057Z,1023.79
2017-03-26T14:13:07.089Z,1023.83
2017-03-26T14:14:07.136Z,1023.86
2017-03-26T14:15:07.159Z,1023.88
2017-03-26T14:16:07.221Z,1023.87
2017-03-26T14:17:07.221Z,1023.83
2017-03-26T14:18:07.256Z,1023.83
2017-03-26T14:19:07.321Z,1023.8
2017-03-26T14:20:07.327Z,1023.86
2017-03-26T14:21:07.362Z,1023.8
2017-03-26T14:22:07.422Z,1023.78
2017-03-26T14:23:07.419Z,1023.78
2017-03-26T14:24:07.458Z,1023.81
2017-03-26T14:25:07.597Z,1023.8
2017-03-26T14:26:07.523Z,1023.79
2017-03-26T14:27:07.557Z,1023.73
2017-03-26T14:28:07.590Z,1023.74
2017-03-26T14:29:07.630Z,1023.72
2017-03-26T14:30:07.661Z,1023.81
2017-03-26T14:31:07.682Z,1023.78
2017-03-26T14:32:07.719Z,1023.75
2017-03-26T14:33:07.761Z,1023.75
2017-03-26T14:34:07.795Z,1023.77
2017-03-26T14:35:07.823Z,1023.72
2017-03-26T14:36:07.852Z,1023.71
2017-03-26T14:37:07.900Z,1023.71
2017-03-26T14:38:07.932Z,1023.71
2017-03-26T14:39:07.953Z,1023.76
2017-03-26T14:40:07.997Z,1023.7
2017-03-26T14:41:08.022Z,1023.72
2017-03-26T14:42:08.070Z,1023.74
2017-03-26T14:43:08.097Z,1023.72
2017-03-26T14:44:08.126Z,1023.72
2017-03-26T14:45:08.191Z,1023.67
2017-03-26T14:46:08.226Z,1023.66
2017-03-26T14:47:08.220Z,1023.67
2017-03-26T14:48:08.268Z,1023.62
2017-03-26T14:49:08.326Z,1023.62
2017-03-26T14:50:08.328Z,1023.62
2017-03-26T14:51:08.356Z,1023.6
2017-03-26T14:52:08.421Z,1023.68
2017-03-26T14:53:08.459Z,1023.69
2017-03-26T14:54:08.465Z,1023.64
2017-03-26T14:55:08.499Z,1023.65
2017-03-26T14:56:08.529Z,1023.66
2017-03-26T14:57:08.588Z,1023.64
2017-03-26T14:58:08.599Z,1023.57
2017-03-26T14:59:08.631Z,1023.54
2017-03-26T15:00:08.655Z,1023.53
2017-03-26T15:01:08.722Z,1023.62
2017-03-26T15:02:08.722Z,1023.55
2017-03-26T15:03:08.764Z,1023.55
2017-03-26T15:04:08.798Z,1023.55
2017-03-26T15:05:08.830Z,1023.61
2017-03-26T15:06:08.858Z,1023.59
2017-03-26T15:07:08.898Z,1023.63
2017-03-26T15:08:08.929Z,1023.62
2017-03-26T15:09:08.956Z,1023.58
2017-03-26T15:10:08.993Z,1023.62
2017-03-26T15:11:09.055Z,1023.56
2017-03-26T15:12:09.056Z,1023.56
2017-03-26T15:13:09.097Z,1023.52
2017-03-26T15:14:09.123Z,1023.49
2017-03-26T15:15:09.158Z,1023.45
2017-03-26T15:16:09.184Z,1023.48
2017-03-26T15:17:09.224Z,1023.51
2017-03-26T15:18:09.248Z,1023.52
2017-03-26T15:19:09.292Z,1023.53
2017-03-26T15:20:09.316Z,1023.54
2017-03-26T15:21:09.362Z,1023.55
2017-03-26T15:22:09.383Z,1023.54
2017-03-26T15:23:09.423Z,1023.54
2017-03-26T15:24:09.463Z,1023.58
2017-03-26T15:25:09.487Z,1023.58
2017-03-26T15:26:09.522Z,1023.6
2017-03-26T15:27:09.557Z,1023.56
2017-03-26T15:28:09.595Z,1023.58
2017-03-26T15:29:09.621Z,1023.5
2017-03-26T15:30:09.657Z,1023.55
2017-03-26T15:31:09.692Z,1023.53
2017-03-26T15:32:09.722Z,1023.53
2017-03-26T15:33:09.747Z,1023.55
2017-03-26T15:34:09.790Z,1023.53
2017-03-26T15:35:09.828Z,1023.49
2017-03-26T15:36:09.888Z,1023.55
2017-03-26T15:37:09.889Z,1023.51
2017-03-26T15:38:09.946Z,1023.51
2017-03-26T15:39:09.957Z,1023.52
2017-03-26T15:40:09.987Z,1023.54
2017-03-26T15:41:10.011Z,1023.57
2017-03-26T15:42:10.075Z,1023.55
2017-03-26T15:43:10.074Z,1023.5
2017-03-26T15:44:10.149Z,1023.51
2017-03-26T15:45:10.141Z,1023.52
2017-03-26T15:46:10.184Z,1023.58
2017-03-26T15:47:10.214Z,1023.55
2017-03-26T15:48:10.265Z,1023.58
2017-03-26T15:49:10.275Z,1023.54
2017-03-26T15:50:10.316Z,1023.57
2017-03-26T15:51:10.342Z,1023.55
2017-03-26T15:52:10.386Z,1023.5
2017-03-26T15:53:10.443Z,1023.51
2017-03-26T15:54:10.451Z,1023.49
2017-03-26T15:55:10.473Z,1023.53
2017-03-26T15:56:10.515Z,1023.53
2017-03-26T15:57:10.540Z,1023.52
2017-03-26T15:58:10.604Z,1023.49
2017-03-26T15:59:10.600Z,1023.54
2017-03-26T16:00:10.642Z,1023.52
2017-03-26T16:01:10.669Z,1023.5
2017-03-26T16:02:10.713Z,1023.53
2017-03-26T16:03:10.750Z,1023.53
2017-03-26T16:04:10.783Z,1023.51
2017-03-26T16:05:10.807Z,1023.49
2017-03-26T16:06:10.839Z,1023.53
2017-03-26T16:07:10.870Z,1023.49
2017-03-26T16:08:10.904Z,1023.49
2017-03-26T16:09:10.937Z,1023.5
2017-03-26T16:10:10.963Z,1023.49
2017-03-26T16:11:11.009Z,1023.45
2017-03-26T16:12:11.037Z,1023.45
2017-03-26T16:13:11.059Z,1023.51
2017-03-26T16:14:11.096Z,1023.5
2017-03-26T16:15:11.138Z,1023.45
2017-03-26T16:16:11.160Z,1023.47
2017-03-26T16:17:11.200Z,1023.5
2017-03-26T16:18:11.265Z,1023.46
2017-03-26T16:19:11.263Z,1023.43
2017-03-26T16:20:11.292Z,1023.48
2017-03-26T16:21:11.344Z,1023.52
2017-03-26T16:22:11.361Z,1023.47
2017-03-26T16:23:11.418Z,1023.45
2017-03-26T16:24:11.431Z,1023.42
2017-03-26T16:25:11.484Z,1023.47
2017-03-26T16:26:11.485Z,1023.46
2017-03-26T16:27:11.522Z,1023.44
2017-03-26T16:28:11.560Z,1023.42
2017-03-26T16:29:11.808Z,1023.47
2017-03-26T16:30:11.616Z,1023.51
2017-03-26T16:31:11.649Z,1023.56
2017-03-26T16:32:11.681Z,1023.44
2017-03-26T16:33:11.737Z,1023.45
2017-03-26T16:34:11.787Z,1023.46
2017-03-26T16:35:12.065Z,1023.48
2017-03-26T16:36:11.822Z,1023.43
2017-03-26T16:37:11.859Z,1023.41
2017-03-26T16:38:11.891Z,1023.42
2017-03-26T16:39:11.910Z,1023.46
2017-03-26T16:40:11.978Z,1023.43
2017-03-26T16:41:11.982Z,1023.43
2017-03-26T16:42:12.013Z,1023.45
2017-03-26T16:43:12.048Z,1023.45
2017-03-26T16:44:12.111Z,1023.45
2017-03-26T16:45:12.105Z,1023.47
2017-03-26T16:46:12.148Z,1023.46
2017-03-26T16:47:12.170Z,1023.48
2017-03-26T16:48:12.205Z,1023.41
2017-03-26T16:49:12.243Z,1023.47
2017-03-26T16:50:12.317Z,1023.49
2017-03-26T16:51:12.300Z,1023.48
2017-03-26T16:52:12.340Z,1023.49
2017-03-26T16:53:12.372Z,1023.43
2017-03-26T16:54:12.421Z,1023.47
2017-03-26T16:55:12.427Z,1023.45
2017-03-26T16:56:12.481Z,1023.47
2017-03-26T16:57:12.524Z,1023.45
2017-03-26T16:58:12.536Z,1023.41
2017-03-26T16:59:12.563Z,1023.45
2017-03-26T17:00:12.625Z,1023.41
2017-03-26T17:01:12.629Z,1023.45
2017-03-26T17:02:12.650Z,1023.48
2017-03-26T17:03:12.684Z,1023.46
2017-03-26T17:04:12.715Z,1023.46
2017-03-26T17:05:12.757Z,1023.48
2017-03-26T17:06:12.785Z,1023.49
2017-03-26T17:07:12.846Z,1023.52
2017-03-26T17:08:12.863Z,1023.49
2017-03-26T17:09:12.879Z,1023.47
2017-03-26T17:10:13.070Z,1023.52
2017-03-26T17:11:12.945Z,1023.51
2017-03-26T17:12:12.982Z,1023.56
2017-03-26T17:13:13.045Z,1023.5
2017-03-26T17:14:13.038Z,1023.54
2017-03-26T17:15:13.076Z,1023.54
2017-03-26T17:16:13.140Z,1023.52
2017-03-26T17:17:13.130Z,1023.48
2017-03-26T17:18:13.164Z,1023.49
2017-03-26T17:19:13.233Z,1023.52
2017-03-26T17:20:13.232Z,1023.54
2017-03-26T17:21:13.300Z,1023.57
2017-03-26T17:22:13.307Z,1023.58
2017-03-26T17:23:13.326Z,1023.52
2017-03-26T17:24:13.398Z,1023.58
2017-03-26T17:25:13.408Z,1023.56
2017-03-26T17:26:13.625Z,1023.59
2017-03-26T17:27:13.452Z,1023.53
2017-03-26T17:28:13.494Z,1023.59
2017-03-26T17:29:13.556Z,1023.59
2017-03-26T17:30:13.548Z,1023.54
2017-03-26T17:31:13.588Z,1023.58
2017-03-26T17:32:13.640Z,1023.54
2017-03-26T17:33:13.646Z,1023.58
2017-03-26T17:34:13.689Z,1023.57
2017-03-26T17:35:13.717Z,1023.56
2017-03-26T17:36:13.740Z,1023.56
2017-03-26T17:37:13.805Z,1023.56
2017-03-26T17:38:13.810Z,1023.6
2017-03-26T17:39:13.838Z,1023.58
2017-03-26T17:40:13.877Z,1023.65
2017-03-26T17:41:13.912Z,1023.62
2017-03-26T17:42:13.938Z,1023.63
2017-03-26T17:43:13.976Z,1023.65
2017-03-26T17:44:14.000Z,1023.7
2017-03-26T17:45:14.127Z,1023.68
2017-03-26T17:46:14.062Z,1023.7
2017-03-26T17:47:14.097Z,1023.67
2017-03-26T17:48:14.121Z,1023.7
2017-03-26T17:49:14.185Z,1023.66
2017-03-26T17:50:14.189Z,1023.69
2017-03-26T17:51:14.213Z,1023.64
2017-03-26T17:52:14.254Z,1023.67
2017-03-26T17:53:14.329Z,1023.65
2017-03-26T17:54:14.337Z,1023.73
2017-03-26T17:55:14.348Z,1023.7
2017-03-26T17:56:14.375Z,1023.69
2017-03-26T17:57:14.445Z,1023.71
2017-03-26T17:58:14.445Z,1023.69
2017-03-26T17:59:14.464Z,1023.68
2017-03-26T18:00:14.499Z,1023.67
2017-03-26T18:01:14.553Z,1023.65
2017-03-26T18:02:14.573Z,1023.65